Time;durP1;ratioP1;P1;durP2;ratioP2;P2;SDS_P1;SDS_P2;PMS_P1;PMS_P2;Temp;Humidity;BMP_temperature;BMP_pressure;BME280_temperature;BME280_humidity;BME280_pressure;Samples;Min_cycle;Max_cycle;Signal;HPM_P1;HPM_P2
2023/03/04 00:08:36;;;;;;;22.73;10.45;;;;;;;0.31;73.97;100306.69;30488672;28;97365;-64
2023/03/04 00:23:37;;;;;;;17.67;9.15;;;;;;;0.40;74.21;100299.19;30487274;28;96760;-63
2023/03/04 00:38:38;;;;;;;14.15;8.00;;;;;;;0.25;73.80;100265.19;30487715;28;97773;-63
2023/03/04 00:53:38;;;;;;;15.85;8.20;;;;;;;0.19;74.00;100238.56;30506165;28;96722;-63
2023/03/04 01:08:38;;;;;;;13.65;7.53;;;;;;;0.27;74.21;100236.28;30504111;28;97349;-63
2023/03/04 01:23:39;;;;;;;10.63;5.35;;;;;;;0.32;74.34;100211.44;30502916;28;97002;-62
2023/03/04 01:38:39;;;;;;;11.98;6.07;;;;;;;0.33;74.02;100186.91;30512819;28;97346;-62
2023/03/04 01:53:41;;;;;;;17.55;7.10;;;;;;;0.43;74.15;100165.31;30620330;28;96720;-63
2023/03/04 02:08:41;;;;;;;18.63;8.25;;;;;;;0.54;73.92;100138.38;30619222;28;97272;-63
2023/03/04 02:23:51;;;;;;;15.70;7.68;;;;;;;0.63;73.59;100143.81;30616100;28;96810;-63
2023/03/04 02:38:53;;;;;;;13.30;7.70;;;;;;;0.69;73.44;100131.22;30616103;28;96621;-62
2023/03/04 02:53:53;;;;;;;15.00;6.90;;;;;;;0.70;72.81;100110.13;30614777;28;96807;-63
2023/03/04 03:08:54;;;;;;;11.57;6.13;;;;;;;0.70;72.78;100101.41;30612403;28;97478;-63
2023/03/04 03:23:54;;;;;;;9.68;5.40;;;;;;;0.74;72.56;100103.72;30611748;28;97440;-63
2023/03/04 03:38:54;;;;;;;7.38;5.18;;;;;;;0.75;72.14;100088.81;30610900;28;96773;-63
2023/03/04 03:53:55;;;;;;;13.25;7.75;;;;;;;0.78;72.01;100084.19;30610246;28;96595;-63
2023/03/04 04:08:55;;;;;;;14.95;8.90;;;;;;;0.85;71.53;100079.34;30607423;28;96650;-62
2023/03/04 04:23:56;;;;;;;16.27;8.50;;;;;;;0.87;71.58;100059.06;30624822;28;97023;-63
2023/03/04 04:38:56;;;;;;;9.00;4.10;;;;;;;0.83;71.30;100055.00;30626479;28;96809;-62
2023/03/04 04:53:58;;;;;;;10.27;7.03;;;;;;;0.82;70.75;100029.72;30625653;28;96853;-63
2023/03/04 05:08:59;;;;;;;6.38;5.03;;;;;;;0.80;70.91;100005.41;30624556;28;97196;-63
2023/03/04 05:23:59;;;;;;;8.75;5.45;;;;;;;0.81;70.54;100022.81;30621530;28;96905;-63
2023/03/04 05:38:59;;;;;;;14.75;8.02;;;;;;;0.94;70.69;100018.34;30620750;28;97247;-63
2023/03/04 05:54:00;;;;;;;15.63;9.50;;;;;;;1.15;70.55;100015.94;30619744;28;96817;-63
2023/03/04 06:09:00;;;;;;;10.75;6.20;;;;;;;1.28;70.03;100021.09;30618796;28;97728;-63
2023/03/04 06:24:01;;;;;;;19.55;9.90;;;;;;;1.44;69.93;100025.22;30615799;28;96778;-64
2023/03/04 06:39:03;;;;;;;7.78;5.63;;;;;;;1.57;69.14;100033.81;30614592;28;96755;-63
2023/03/04 06:54:04;;;;;;;17.45;10.10;;;;;;;1.60;69.03;100051.97;30612425;28;97420;-63
2023/03/04 07:09:04;;;;;;;17.50;9.55;;;;;;;1.75;68.79;100064.88;30611934;28;96803;-62
2023/03/04 07:24:05;;;;;;;11.60;6.65;;;;;;;1.84;68.41;100062.38;30609522;28;96755;-63
2023/03/04 07:39:06;;;;;;;15.77;7.97;;;;;;;2.03;68.72;100047.84;30607864;28;96830;-62
2023/03/04 07:54:06;;;;;;;7.68;4.78;;;;;;;2.08;68.58;100047.47;30606460;28;96636;-63
2023/03/04 08:09:09;;;;;;;11.38;6.68;;;;;;;2.10;68.75;100037.72;30606429;28;96727;-63
2023/03/04 08:24:10;;;;;;;19.33;8.88;;;;;;;2.09;68.84;100025.50;30604665;28;97700;-63
2023/03/04 08:39:12;;;;;;;18.35;9.70;;;;;;;2.22;69.48;100030.66;30603635;28;96800;-63
2023/03/04 08:54:12;;;;;;;8.63;5.15;;;;;;;2.54;69.62;100007.91;30601965;28;96697;-63
2023/03/04 09:09:13;;;;;;;12.98;5.43;;;;;;;2.76;69.78;100011.44;30617306;28;96968;-63
2023/03/04 09:24:13;;;;;;;6.95;4.05;;;;;;;2.88;69.56;100014.84;30620632;28;96946;-63
2023/03/04 09:39:14;;;;;;;15.55;5.40;;;;;;;3.08;68.89;100013.25;30618851;28;97278;-63
2023/03/04 09:54:37;;;;;;;4.20;2.92;;;;;;;3.18;69.01;99994.88;30616828;28;97471;-63
2023/03/04 10:09:47;;;;;;;10.88;4.55;;;;;;;3.20;69.35;99995.59;30605688;28;96700;-63
2023/03/04 10:24:48;;;;;;;14.00;5.50;;;;;;;3.70;69.78;99979.13;30614857;28;96715;-63
2023/03/04 10:39:49;;;;;;;5.82;3.05;;;;;;;3.87;69.26;99952.16;30614962;28;96632;-63
2023/03/04 10:54:53;;;;;;;10.38;5.20;;;;;;;3.96;69.52;99947.88;30612430;28;96648;-63
2023/03/04 11:09:54;;;;;;;10.77;5.03;;;;;;;4.51;69.53;99929.00;30611449;28;97420;-63
2023/03/04 11:25:22;;;;;;;8.18;4.63;;;;;;;4.81;68.32;99931.66;30609192;28;97243;-63
2023/03/04 11:40:38;;;;;;;10.70;4.82;;;;;;;4.64;68.47;99920.81;30604851;28;97410;-63
2023/03/04 11:56:15;;;;;;;11.95;4.68;;;;;;;5.30;67.48;99916.56;30607783;28;96779;-62
2023/03/04 12:11:19;;;;;;;9.80;5.10;;;;;;;5.26;66.62;99899.34;30606662;28;96674;-63
2023/03/04 12:26:23;;;;;;;6.85;4.10;;;;;;;5.63;66.84;99898.56;30605465;28;96679;-63
2023/03/04 12:41:50;;;;;;;6.20;4.40;;;;;;;5.48;66.32;99884.97;30615064;28;97815;-62
2023/03/04 12:56:59;;;;;;;7.32;5.22;;;;;;;5.73;65.84;99872.06;30624614;28;97111;-63
2023/03/04 13:12:20;;;;;;;7.15;4.40;;;;;;;5.21;66.27;99876.00;30622495;28;96723;-62
2023/03/04 13:27:50;;;;;;;9.55;5.85;;;;;;;5.02;67.26;99865.50;30621170;28;96975;-62
2023/03/04 13:42:50;;;;;;;9.57;6.07;;;;;;;5.02;67.82;99861.06;30610598;28;96789;-63
2023/03/04 13:57:51;;;;;;;10.70;5.78;;;;;;;5.04;68.47;99864.41;30618223;28;96783;-63
2023/03/04 14:12:57;;;;;;;7.53;3.92;;;;;;;5.62;67.94;99836.09;30616752;28;97294;-63
2023/03/04 14:28:13;;;;;;;11.90;4.88;;;;;;;5.58;67.60;99832.09;30615709;28;96582;-63
2023/03/04 14:43:17;;;;;;;5.25;3.58;;;;;;;5.51;66.86;99831.00;30611363;28;96726;-63
2023/03/04 14:58:24;;;;;;;9.30;4.80;;;;;;;5.08;66.98;99820.88;30611146;28;96713;-63
2023/03/04 15:13:39;;;;;;;8.90;4.45;;;;;;;4.92;67.76;99836.47;30611229;28;97013;-63
2023/03/04 15:28:40;;;;;;;10.32;5.70;;;;;;;4.93;68.04;99822.31;30609448;28;96746;-63
2023/03/04 15:43:41;;;;;;;10.35;4.97;;;;;;;4.87;67.92;99817.59;30606700;28;96863;-63
2023/03/04 15:58:42;;;;;;;8.15;3.88;;;;;;;4.73;67.87;99817.06;30607548;28;97728;-62
2023/03/04 16:13:42;;;;;;;9.18;4.03;;;;;;;4.53;68.04;99818.06;30615990;28;96721;-62
2023/03/04 16:28:43;;;;;;;8.48;3.70;;;;;;;4.37;68.63;99837.94;30626279;28;96767;-63
2023/03/04 16:43:44;;;;;;;8.77;5.18;;;;;;;4.24;68.81;99854.00;30625249;28;96775;-63
2023/03/04 16:58:45;;;;;;;9.95;5.80;;;;;;;4.13;69.06;99862.06;30623183;28;96690;-63
2023/03/04 17:13:46;;;;;;;10.63;5.28;;;;;;;4.05;69.30;99872.47;30624027;28;96746;-63
2023/03/04 17:28:50;;;;;;;10.15;4.65;;;;;;;3.97;69.77;99874.94;30621329;28;96862;-63
2023/03/04 17:43:51;;;;;;;9.80;4.97;;;;;;;3.95;70.33;99887.41;30619650;28;97349;-63
2023/03/04 17:58:51;;;;;;;13.07;4.60;;;;;;;3.92;70.22;99899.03;30619088;28;97108;-63
2023/03/04 18:13:52;;;;;;;13.75;4.75;;;;;;;3.89;70.38;99899.31;30615680;28;96780;-62
2023/03/04 18:28:54;;;;;;;14.98;4.68;;;;;;;3.85;70.11;99903.19;30615217;28;97535;-62
2023/03/04 18:43:55;;;;;;;6.03;3.33;;;;;;;3.80;70.37;99910.66;30613039;28;97036;-62
2023/03/04 18:58:57;;;;;;;9.38;3.55;;;;;;;3.75;70.24;99911.06;30612301;28;96792;-62
2023/03/04 19:13:57;;;;;;;6.50;3.17;;;;;;;3.80;70.09;99929.97;30612047;28;96621;-63
2023/03/04 19:28:58;;;;;;;15.90;3.50;;;;;;;3.86;69.90;99926.78;30609453;28;97531;-63
2023/03/04 19:43:58;;;;;;;12.05;3.42;;;;;;;3.96;70.08;99947.88;30607703;28;96585;-63
2023/03/04 19:58:59;;;;;;;5.85;2.80;;;;;;;3.85;68.49;99959.34;30607398;28;96660;-63
2023/03/04 20:14:00;;;;;;;6.20;2.00;;;;;;;3.63;66.90;99968.28;30606254;28;96625;-63
2023/03/04 20:29:00;;;;;;;5.47;2.22;;;;;;;3.52;65.76;99965.72;30605359;28;96858;-63
2023/03/04 20:44:01;;;;;;;9.82;2.00;;;;;;;3.37;64.42;99973.94;30603362;28;96663;-63
2023/03/04 20:59:03;;;;;;;4.70;2.13;;;;;;;3.19;62.87;99980.75;30610870;28;96605;-62
2023/03/04 21:14:04;;;;;;;5.43;2.22;;;;;;;3.04;62.12;99982.88;30621667;28;96659;-62
2023/03/04 21:29:04;;;;;;;4.43;1.85;;;;;;;2.90;61.57;99968.22;30620014;28;96735;-62
2023/03/04 21:44:05;;;;;;;2.78;1.50;;;;;;;2.82;61.48;99966.22;30619452;28;96687;-62
2023/03/04 21:59:08;;;;;;;4.47;1.80;;;;;;;2.80;61.23;99972.56;30620025;28;97256;-62
2023/03/04 22:14:10;;;;;;;7.10;3.10;;;;;;;2.75;61.07;99967.69;30616996;28;96641;-62
2023/03/04 22:29:10;;;;;;;5.22;2.80;;;;;;;2.55;59.42;99961.41;30617363;28;96773;-62
2023/03/04 22:44:11;;;;;;;3.42;1.80;;;;;;;2.46;58.67;99962.13;30615673;28;97388;-62
2023/03/04 22:59:12;;;;;;;6.38;1.83;;;;;;;2.38;58.60;99960.16;30615008;28;98439;-63
2023/03/04 23:14:12;;;;;;;3.63;1.65;;;;;;;2.31;58.27;99954.53;30614010;28;96500;-63
2023/03/04 23:29:14;;;;;;;5.47;1.90;;;;;;;2.29;57.65;99963.50;30610830;28;97291;-62
2023/03/04 23:44:14;;;;;;;5.88;2.83;;;;;;;2.16;57.54;99947.84;30610261;28;96820;-62
2023/03/04 23:59:15;;;;;;;5.50;2.47;;;;;;;2.10;56.89;99950.97;30609665;28;96672;-62
